Terminal Aerodrome Forecast
Issued by NWS Brownsville, TX

Home | Current Version | Previous Version | Text Only | Print | Product List | Glossary On
Versions: 1 2 3 4 5 6 7 8 9 10 11 12 13 14 15 16 17 18 19
723
FTUS44 KBRO 271134
TAFMFE
TAF
KMFE 271134Z 2712/2812 15010KT P6SM SCT015
      TEMPO 2712/2713 5SM BR BKN010
     FM271400 16012KT P6SM BKN040
     FM271800 17014G18KT P6SM SCT050
     FM280100 14012KT P6SM FEW025 SCT250
     FM280500 15012KT P6SM BKN015=

USA.gov is the U.S. government's official web portal to all federal, state and local government web resources and services.